sensor_id;sensor_type;location;lat;lon;timestamp;pressure;altitude;pressure_sealevel;temperature;humidity
69926;BME280;57217;47.286;8.530;2024-02-21T00:20:49;96313.13;;;2.60;100.00
69926;BME280;57217;47.286;8.530;2024-02-21T00:50:51;96294.97;;;2.55;100.00
69926;BME280;57217;47.286;8.530;2024-02-21T01:20:54;96285.94;;;2.44;100.00
69926;BME280;57217;47.286;8.530;2024-02-21T01:50:56;96264.91;;;2.49;100.00
69926;BME280;57217;47.286;8.530;2024-02-21T02:20:59;96210.19;;;2.78;100.00
69926;BME280;57217;47.286;8.530;2024-02-21T02:51:01;96185.53;;;2.97;100.00
69926;BME280;57217;47.286;8.530;2024-02-21T03:21:04;96131.44;;;2.97;100.00
69926;BME280;57217;47.286;8.530;2024-02-21T03:51:07;96064.06;;;2.91;100.00
69926;BME280;57217;47.286;8.530;2024-02-21T04:21:10;96032.47;;;2.63;100.00
69926;BME280;57217;47.286;8.530;2024-02-21T04:51:13;96021.16;;;2.50;100.00
69926;BME280;57217;47.286;8.530;2024-02-21T05:21:15;95982.69;;;2.38;100.00
69926;BME280;57217;47.286;8.530;2024-02-21T05:51:18;95974.69;;;2.43;100.00
69926;BME280;57217;47.286;8.530;2024-02-21T06:21:20;95954.19;;;2.54;100.00
69926;BME280;57217;47.286;8.530;2024-02-21T06:51:22;95958.47;;;2.59;100.00
69926;BME280;57217;47.286;8.530;2024-02-21T07:21:25;95959.22;;;3.01;100.00
69926;BME280;57217;47.286;8.530;2024-02-21T07:51:30;95948.03;;;4.19;100.00
69926;BME280;57217;47.286;8.530;2024-02-21T08:21:32;95914.00;;;5.42;100.00
69926;BME280;57217;47.286;8.530;2024-02-21T08:51:34;95892.28;;;6.63;96.69
69926;BME280;57217;47.286;8.530;2024-02-21T09:21:37;95875.22;;;7.38;82.99
69926;BME280;57217;47.286;8.530;2024-02-21T09:51:40;95852.78;;;8.23;77.51
69926;BME280;57217;47.286;8.530;2024-02-21T10:21:43;95822.84;;;9.53;64.27
69926;BME280;57217;47.286;8.530;2024-02-21T10:51:47;95793.72;;;9.97;60.25
69926;BME280;57217;47.286;8.530;2024-02-21T11:21:51;95727.56;;;11.27;61.31
69926;BME280;57217;47.286;8.530;2024-02-21T11:51:59;95672.69;;;11.56;53.32
69926;BME280;57217;47.286;8.530;2024-02-21T12:22:03;95619.41;;;12.27;55.51
69926;BME280;57217;47.286;8.530;2024-02-21T12:52:08;95572.47;;;13.47;57.05
69926;BME280;57217;47.286;8.530;2024-02-21T13:22:10;95507.06;;;12.92;53.40
69926;BME280;57217;47.286;8.530;2024-02-21T13:52:13;95428.56;;;12.95;53.05
69926;BME280;57217;47.286;8.530;2024-02-21T14:22:17;95389.94;;;12.63;58.94
69926;BME280;57217;47.286;8.530;2024-02-21T14:52:20;95350.25;;;12.56;58.58
69926;BME280;57217;47.286;8.530;2024-02-21T15:22:23;95332.09;;;12.21;59.79
69926;BME280;57217;47.286;8.530;2024-02-21T15:52:25;95309.97;;;11.59;60.95
69926;BME280;57217;47.286;8.530;2024-02-21T16:22:28;95278.28;;;10.41;63.14
69926;BME280;57217;47.286;8.530;2024-02-21T16:52:31;95250.06;;;10.10;70.60
69926;BME280;57217;47.286;8.530;2024-02-21T17:22:33;95240.09;;;9.55;73.98
69926;BME280;57217;47.286;8.530;2024-02-21T17:52:39;95212.22;;;9.33;73.07
69926;BME280;57217;47.286;8.530;2024-02-21T18:22:44;95180.25;;;9.02;76.44
69926;BME280;57217;47.286;8.530;2024-02-21T18:52:50;95139.22;;;8.76;78.18
69926;BME280;57217;47.286;8.530;2024-02-21T19:22:54;95116.25;;;8.66;71.47
69926;BME280;57217;47.286;8.530;2024-02-21T19:52:57;95063.56;;;8.62;78.55
69926;BME280;57217;47.286;8.530;2024-02-21T20:22:59;95034.84;;;9.11;63.72
69926;BME280;57217;47.286;8.530;2024-02-21T20:53:01;94974.31;;;8.79;72.44
69926;BME280;57217;47.286;8.530;2024-02-21T21:23:05;94947.09;;;9.07;68.60
69926;BME280;57217;47.286;8.530;2024-02-21T21:53:07;94882.16;;;9.27;64.87
69926;BME280;57217;47.286;8.530;2024-02-21T22:23:10;94871.75;;;9.09;69.84
69926;BME280;57217;47.286;8.530;2024-02-21T22:53:12;94837.84;;;9.11;66.28
69926;BME280;57217;47.286;8.530;2024-02-21T23:23:16;94802.47;;;9.05;72.09
69926;BME280;57217;47.286;8.530;2024-02-21T23:53:19;94746.47;;;9.35;61.66
